Hungerford, Texas
Current Conditions -  °F | °C
As of 2:35 PM on Thursday 27 Nov 2014 (Local Time) from KARM Reporting Station
Clear Clear  
Wind Chill: 67°   Ceiling: Unl
Heat Index: 67°   Visibility: 10mi
Dew Point: 30°   Wind: 5mph
Humidity: 25%   Direction: 60°ENE
Pressure: 30.42"   Gusts: NA
Location:  29.4°N, 96.08°W
Report Text: KARM 272035Z AUTO 06004KT 10SM CLR 20/M01 A3042 RMK AO2 T01951013
Loading
Personal Weather Stations






























Interactive Weather Map New forecast layout! Learn more

10-Day Weather Forecast

Advertisements
Track Severe Weather on mobile